createdAt,value
2022-10-09T00:01:03.065Z,10.03
2022-10-09T00:03:05.899Z,10.10
2022-10-09T00:05:09.441Z,10.04
2022-10-09T00:07:13.465Z,10.11
2022-10-09T00:09:17.111Z,9.84
2022-10-09T00:11:21.987Z,9.89
2022-10-09T00:13:25.063Z,9.97
2022-10-09T00:15:27.851Z,9.96
2022-10-09T00:17:30.522Z,10.01
2022-10-09T00:19:33.243Z,10.04
2022-10-09T00:21:35.926Z,10.05
2022-10-09T00:23:39.980Z,9.81
2022-10-09T00:25:52.485Z,10.02
2022-10-09T00:27:55.218Z,9.96
2022-10-09T00:29:57.924Z,9.97
2022-10-09T00:32:00.607Z,9.98
2022-10-09T00:34:03.232Z,9.95
2022-10-09T00:36:07.399Z,9.40
2022-10-09T00:38:10.529Z,9.57
2022-10-09T00:40:14.884Z,9.69
2022-10-09T00:42:17.587Z,9.76
2022-10-09T00:44:48.584Z,9.88
2022-10-09T00:46:53.278Z,9.94
2022-10-09T00:49:02.779Z,9.22
2022-10-09T00:51:05.995Z,9.96
2022-10-09T00:53:11.826Z,9.91
2022-10-09T00:55:16.689Z,9.85
2022-10-09T00:57:19.839Z,9.86
2022-10-09T00:59:23.626Z,8.39
2022-10-09T01:01:26.593Z,7.00
2022-10-09T01:03:29.261Z,9.74
2022-10-09T01:05:47.015Z,9.66
2022-10-09T01:07:55.461Z,9.63
2022-10-09T01:10:03.142Z,8.24
2022-10-09T01:12:14.873Z,9.32
2022-10-09T01:14:23.866Z,9.29
2022-10-09T01:16:30.233Z,8.98
2022-10-09T01:18:39.376Z,9.06
2022-10-09T01:20:48.175Z,9.12
2022-10-09T01:23:14.733Z,9.13
2022-10-09T01:25:25.081Z,7.96
2022-10-09T01:27:30.134Z,9.10
2022-10-09T01:29:37.428Z,9.13
2022-10-09T01:31:44.624Z,9.12
2022-10-09T01:33:48.057Z,8.94
2022-10-09T01:35:51.397Z,9.01
2022-10-09T01:37:56.044Z,9.05
2022-10-09T01:40:00.476Z,8.95
2022-10-09T01:42:03.644Z,8.93
2022-10-09T01:44:18.199Z,8.98
2022-10-09T01:46:24.195Z,9.05
2022-10-09T01:48:26.894Z,9.09
2022-10-09T01:50:35.379Z,8.74
2022-10-09T01:52:45.358Z,9.15
2022-10-09T01:55:02.413Z,9.17
2022-10-09T01:57:07.853Z,8.34
2022-10-09T01:59:15.992Z,8.98
2022-10-09T02:01:26.186Z,8.93
2022-10-09T02:03:31.758Z,8.92
2022-10-09T02:05:35.035Z,8.79
2022-10-09T02:07:38.439Z,8.95
2022-10-09T02:09:41.985Z,8.94
2022-10-09T02:11:50.464Z,8.58
2022-10-09T02:13:55.189Z,8.88
2022-10-09T02:16:04.272Z,8.85
2022-10-09T02:18:12.986Z,8.67
2022-10-09T02:20:22.319Z,7.99
2022-10-09T02:22:28.517Z,8.74
2022-10-09T02:24:31.651Z,8.82
2022-10-09T02:26:34.573Z,8.41
2022-10-09T02:28:39.738Z,8.66
2022-10-09T02:30:52.394Z,8.67
2022-10-09T02:32:55.370Z,8.63
2022-10-09T02:34:59.754Z,8.67
2022-10-09T02:37:02.583Z,8.65
2022-10-09T02:39:07.182Z,8.64
2022-10-09T02:41:10.198Z,8.55
2022-10-09T02:43:12.916Z,8.61
2022-10-09T02:45:15.802Z,8.57
2022-10-09T02:47:18.575Z,8.49
2022-10-09T02:49:21.946Z,8.51
2022-10-09T02:51:26.933Z,8.49
2022-10-09T02:53:29.756Z,8.48
2022-10-09T02:55:32.513Z,8.57
2022-10-09T02:57:35.286Z,8.55
2022-10-09T02:59:38.041Z,8.51
2022-10-09T03:01:41.032Z,8.52
2022-10-09T03:03:44.097Z,8.52
2022-10-09T03:05:47.608Z,8.56
2022-10-09T03:07:53.138Z,8.59
2022-10-09T03:09:57.150Z,8.55
2022-10-09T03:11:59.829Z,7.88
2022-10-09T03:14:02.535Z,8.10
2022-10-09T03:16:06.223Z,7.61
2022-10-09T03:18:09.032Z,8.27
2022-10-09T03:20:11.808Z,8.22
2022-10-09T03:22:14.562Z,8.32
2022-10-09T03:24:18.731Z,8.23
2022-10-09T03:26:23.574Z,8.36
2022-10-09T03:28:26.735Z,8.02
2022-10-09T03:30:30.678Z,8.40
2022-10-09T03:32:33.604Z,8.40
2022-10-09T03:34:36.360Z,8.36
2022-10-09T03:36:39.307Z,8.35
2022-10-09T03:38:42.173Z,8.35
2022-10-09T03:40:46.307Z,8.37
2022-10-09T03:42:49.376Z,8.30
2022-10-09T03:44:52.630Z,8.14
2022-10-09T03:46:55.350Z,6.85
2022-10-09T03:48:58.130Z,7.74
2022-10-09T03:51:00.961Z,8.23
2022-10-09T03:53:03.689Z,8.18
2022-10-09T03:55:07.117Z,8.12
2022-10-09T03:57:11.269Z,8.18
2022-10-09T03:59:13.971Z,8.17
2022-10-09T04:01:16.850Z,8.09
2022-10-09T04:03:20.225Z,8.00
2022-10-09T04:05:23.305Z,8.06
2022-10-09T04:07:26.043Z,7.90
2022-10-09T04:09:28.756Z,7.92
2022-10-09T04:11:31.441Z,7.82
2022-10-09T04:13:35.603Z,7.93
2022-10-09T04:15:38.293Z,8.03
2022-10-09T04:17:40.980Z,8.06
2022-10-09T04:19:43.894Z,8.01
2022-10-09T04:21:46.636Z,8.06
2022-10-09T04:23:49.545Z,8.05
2022-10-09T04:25:55.371Z,7.33
2022-10-09T04:27:58.243Z,8.07
2022-10-09T04:30:02.344Z,8.09
2022-10-09T04:32:05.326Z,7.94
2022-10-09T04:34:08.009Z,7.97
2022-10-09T04:36:10.949Z,8.05
2022-10-09T04:38:13.658Z,8.03
2022-10-09T04:40:16.435Z,7.95
2022-10-09T04:42:19.152Z,7.86
2022-10-09T04:44:21.914Z,7.77
2022-10-09T04:46:26.046Z,7.79
2022-10-09T04:48:28.722Z,8.32
2022-10-09T04:50:31.424Z,9.62
2022-10-09T04:52:34.319Z,10.20
2022-10-09T04:54:37.015Z,10.40
2022-10-09T04:56:39.756Z,10.65
2022-10-09T04:58:42.835Z,10.32
2022-10-09T05:00:46.778Z,10.62
2022-10-09T05:02:51.223Z,10.95
2022-10-09T05:04:54.246Z,10.85
2022-10-09T05:06:57.019Z,10.80
2022-10-09T05:08:59.856Z,10.63
2022-10-09T05:11:03.022Z,9.90
2022-10-09T05:13:06.121Z,9.47
2022-10-09T05:15:09.473Z,9.11
2022-10-09T05:17:14.736Z,8.91
2022-10-09T05:19:19.078Z,8.37
2022-10-09T05:21:22.134Z,8.22
2022-10-09T05:23:25.053Z,8.42
2022-10-09T05:25:27.730Z,8.36
2022-10-09T05:27:30.432Z,8.32
2022-10-09T05:29:34.096Z,8.11
2022-10-09T05:31:37.656Z,8.11
2022-10-09T05:33:40.476Z,8.18
2022-10-09T05:35:51.358Z,8.05
2022-10-09T05:37:54.078Z,8.03
2022-10-09T05:39:56.799Z,8.10
2022-10-09T05:41:59.595Z,8.03
2022-10-09T05:44:03.941Z,8.07
2022-10-09T05:46:08.313Z,7.74
2022-10-09T05:48:12.156Z,6.61
2022-10-09T05:50:15.382Z,6.31
2022-10-09T05:52:19.519Z,7.59
2022-10-09T05:54:22.405Z,7.60
2022-10-09T05:56:26.829Z,7.72
2022-10-09T05:58:30.351Z,7.79
2022-10-09T06:00:33.076Z,7.67
2022-10-09T06:02:35.807Z,7.66
2022-10-09T06:04:38.486Z,7.61
2022-10-09T06:06:41.799Z,7.55
2022-10-09T06:08:46.340Z,6.76
2022-10-09T06:10:49.075Z,7.24
2022-10-09T06:12:52.016Z,7.71
2022-10-09T06:14:54.872Z,7.83
2022-10-09T06:16:59.528Z,6.49
2022-10-09T06:19:03.233Z,7.51
2022-10-09T06:21:06.832Z,7.85
2022-10-09T06:23:09.492Z,7.65
2022-10-09T06:25:13.735Z,7.75
2022-10-09T06:27:16.448Z,7.66
2022-10-09T06:29:19.118Z,7.46
2022-10-09T06:31:24.104Z,6.85
2022-10-09T06:33:26.837Z,7.77
2022-10-09T06:35:29.645Z,7.21
2022-10-09T06:37:32.387Z,7.86
2022-10-09T06:39:35.054Z,7.89
2022-10-09T06:41:39.157Z,6.68
2022-10-09T06:44:06.464Z,7.09
2022-10-09T06:46:11.253Z,5.54
2022-10-09T06:48:13.960Z,8.11
2022-10-09T06:50:17.014Z,8.05
2022-10-09T06:52:19.694Z,8.37
2022-10-09T06:54:22.455Z,8.46
2022-10-09T06:56:26.734Z,8.59
2022-10-09T06:58:30.844Z,8.75
2022-10-09T07:00:33.520Z,8.80
2022-10-09T07:02:45.461Z,9.01
2022-10-09T07:04:48.341Z,8.77
2022-10-09T07:06:51.037Z,9.31
2022-10-09T07:08:56.619Z,9.28
2022-10-09T07:10:59.567Z,9.55
2022-10-09T07:13:02.280Z,9.59
2022-10-09T07:15:09.304Z,9.70
2022-10-09T07:17:12.186Z,9.85
2022-10-09T07:19:17.426Z,9.57
2022-10-09T07:21:20.840Z,9.38
2022-10-09T07:23:23.533Z,10.00
2022-10-09T07:25:26.240Z,10.09
2022-10-09T07:27:28.964Z,10.24
2022-10-09T07:29:31.626Z,10.23
2022-10-09T07:31:35.773Z,10.28
2022-10-09T07:33:38.657Z,9.45
2022-10-09T07:35:41.314Z,10.28
2022-10-09T07:37:44.043Z,10.48
2022-10-09T07:39:46.674Z,10.56
2022-10-09T07:41:51.612Z,10.51
2022-10-09T07:43:54.646Z,10.46
2022-10-09T07:45:59.548Z,10.72
2022-10-09T07:48:03.624Z,10.82
2022-10-09T07:50:07.427Z,10.88
2022-10-09T07:52:10.204Z,10.96
2022-10-09T07:54:13.057Z,10.40
2022-10-09T07:56:18.216Z,11.11
2022-10-09T07:58:20.951Z,11.22
2022-10-09T08:00:23.645Z,11.30
2022-10-09T08:02:26.401Z,11.38
2022-10-09T08:04:30.512Z,11.33
2022-10-09T08:06:33.727Z,11.38
2022-10-09T08:08:36.475Z,11.46
2022-10-09T08:10:39.222Z,11.52
2022-10-09T08:12:42.093Z,11.55
2022-10-09T08:14:46.943Z,11.58
2022-10-09T08:16:49.649Z,11.68
2022-10-09T08:18:55.625Z,11.82
2022-10-09T08:21:00.367Z,11.01
2022-10-09T08:23:03.063Z,11.98
2022-10-09T08:25:06.830Z,11.41
2022-10-09T08:27:09.562Z,12.25
2022-10-09T08:29:13.938Z,12.32
2022-10-09T08:31:18.496Z,12.36
2022-10-09T08:33:22.191Z,11.83
2022-10-09T08:35:24.961Z,12.56
2022-10-09T08:37:29.041Z,12.78
2022-10-09T08:39:32.314Z,12.86
2022-10-09T08:41:45.025Z,12.95
2022-10-09T08:43:51.475Z,12.27
2022-10-09T08:45:55.752Z,13.06
2022-10-09T08:48:03.601Z,12.24
2022-10-09T08:50:15.170Z,13.27
2022-10-09T08:52:29.233Z,13.38
2022-10-09T08:54:36.575Z,13.45
2022-10-09T08:56:40.361Z,13.58
2022-10-09T08:58:45.417Z,13.61
2022-10-09T09:00:53.280Z,13.76
2022-10-09T09:03:27.717Z,13.93
2022-10-09T09:05:38.181Z,13.98
2022-10-09T09:07:50.213Z,13.85
2022-10-09T09:09:59.735Z,14.21
2022-10-09T09:12:08.532Z,14.29
2022-10-09T09:14:28.086Z,14.41
2022-10-09T09:16:42.103Z,14.47
2022-10-09T09:18:51.802Z,14.58
2022-10-09T09:20:56.039Z,14.66
2022-10-09T09:23:02.210Z,14.79
2022-10-09T09:25:19.808Z,15.03
2022-10-09T09:27:31.260Z,15.25
2022-10-09T09:29:41.943Z,15.35
2022-10-09T09:31:47.194Z,15.45
2022-10-09T09:33:57.365Z,15.51
2022-10-09T09:36:09.474Z,15.42
2022-10-09T09:38:12.322Z,15.69
2022-10-09T09:40:37.081Z,15.61
2022-10-09T09:42:40.868Z,15.84
2022-10-09T09:44:49.865Z,15.85
2022-10-09T09:46:52.657Z,16.22
2022-10-09T09:48:55.584Z,16.39
2022-10-09T09:51:16.071Z,16.53
2022-10-09T09:53:30.013Z,16.62
2022-10-09T09:55:35.919Z,16.73
2022-10-09T09:57:46.307Z,15.90
2022-10-09T09:59:49.336Z,16.82
2022-10-09T10:02:01.224Z,17.01
2022-10-09T10:04:05.662Z,17.23
2022-10-09T10:06:22.356Z,17.23
2022-10-09T10:08:28.010Z,17.33
2022-10-09T10:10:31.005Z,17.57
2022-10-09T10:12:35.166Z,17.65
2022-10-09T10:14:37.903Z,17.85
2022-10-09T10:16:41.872Z,18.01
2022-10-09T10:18:44.792Z,18.02
2022-10-09T10:20:49.621Z,17.99
2022-10-09T10:22:53.795Z,17.88
2022-10-09T10:24:59.176Z,18.16
2022-10-09T10:27:06.465Z,18.38
2022-10-09T10:29:15.871Z,18.47
2022-10-09T10:31:30.675Z,18.49
2022-10-09T10:33:34.871Z,18.63
2022-10-09T10:35:40.971Z,18.58
2022-10-09T10:37:48.888Z,18.70
2022-10-09T10:40:00.542Z,18.49
2022-10-09T10:42:08.677Z,18.86
2022-10-09T10:44:22.592Z,18.72
2022-10-09T10:46:30.323Z,18.98
2022-10-09T10:48:38.080Z,19.19
2022-10-09T10:50:47.794Z,19.15
2022-10-09T10:53:01.140Z,19.15
2022-10-09T10:55:21.958Z,19.17
2022-10-09T10:57:32.157Z,19.20
2022-10-09T10:59:43.643Z,19.22
2022-10-09T11:01:59.286Z,19.03
2022-10-09T11:04:16.255Z,19.09
2022-10-09T11:06:27.017Z,19.18
2022-10-09T11:08:54.380Z,19.42
2022-10-09T11:11:04.060Z,18.99
2022-10-09T11:13:16.165Z,18.85
2022-10-09T11:15:37.354Z,19.76
2022-10-09T11:17:51.580Z,19.80
2022-10-09T11:20:09.909Z,19.62
2022-10-09T11:22:23.443Z,20.14
2022-10-09T11:24:58.103Z,20.28
2022-10-09T11:27:11.156Z,20.43
2022-10-09T11:29:18.860Z,20.24
2022-10-09T11:31:29.254Z,20.28
2022-10-09T11:33:37.866Z,19.91
2022-10-09T11:35:45.500Z,20.37
2022-10-09T11:37:57.625Z,20.45
2022-10-09T11:40:00.652Z,20.52
2022-10-09T11:42:04.250Z,20.21
2022-10-09T11:44:23.981Z,20.40
2022-10-09T11:46:40.992Z,20.42
2022-10-09T11:48:49.544Z,20.32
2022-10-09T11:51:00.517Z,20.50
2022-10-09T11:53:06.858Z,20.65
2022-10-09T11:55:18.095Z,20.46
2022-10-09T11:57:29.097Z,20.85
2022-10-09T11:59:35.226Z,20.91
2022-10-09T12:01:41.460Z,20.68
2022-10-09T12:03:44.931Z,20.71
2022-10-09T12:05:49.877Z,20.48
2022-10-09T12:07:52.759Z,20.53
2022-10-09T12:10:00.761Z,20.83
2022-10-09T12:12:07.552Z,20.81
2022-10-09T12:14:24.668Z,20.99
2022-10-09T12:16:34.265Z,20.85
2022-10-09T12:18:41.562Z,20.35
2022-10-09T12:20:48.658Z,21.14
2022-10-09T12:23:21.749Z,21.21
2022-10-09T12:25:26.983Z,21.12
2022-10-09T12:27:33.194Z,21.26
2022-10-09T12:29:41.718Z,20.99
2022-10-09T12:31:45.564Z,18.00
2022-10-09T12:33:55.047Z,21.04
2022-10-09T12:36:05.939Z,21.33
2022-10-09T12:38:17.617Z,21.67
2022-10-09T12:40:25.231Z,21.96
2022-10-09T12:42:28.356Z,22.09
2022-10-09T12:44:35.320Z,22.03
2022-10-09T12:46:40.391Z,22.53
2022-10-09T12:48:45.804Z,22.96
2022-10-09T12:50:50.082Z,23.13
2022-10-09T12:52:55.189Z,22.84
2022-10-09T12:54:57.978Z,22.92
2022-10-09T12:57:02.242Z,23.19
2022-10-09T12:59:07.070Z,23.35
2022-10-09T13:01:16.733Z,23.24
2022-10-09T13:03:25.011Z,23.10
2022-10-09T13:05:37.516Z,22.97
2022-10-09T13:07:45.339Z,22.35
2022-10-09T13:09:57.697Z,22.79
2022-10-09T13:12:05.498Z,23.25
2022-10-09T13:14:23.959Z,23.46
2022-10-09T13:16:27.520Z,23.28
2022-10-09T13:18:30.627Z,22.77
2022-10-09T13:20:33.824Z,23.49
2022-10-09T13:22:36.520Z,23.83
2022-10-09T13:24:40.967Z,24.07
2022-10-09T13:26:44.902Z,24.07
2022-10-09T13:28:47.899Z,23.99
2022-10-09T13:30:50.918Z,22.73
2022-10-09T13:32:53.679Z,22.91
2022-10-09T13:34:58.009Z,22.67
2022-10-09T13:37:00.750Z,22.59
2022-10-09T13:39:03.672Z,22.55
2022-10-09T13:41:07.855Z,22.50
2022-10-09T13:43:14.347Z,22.77
2022-10-09T13:45:17.192Z,22.84
2022-10-09T13:47:24.272Z,21.31
2022-10-09T13:49:27.496Z,23.37
2022-10-09T13:51:31.928Z,23.50
2022-10-09T13:53:35.261Z,23.38
2022-10-09T13:55:39.058Z,22.58
2022-10-09T13:57:43.129Z,22.87
2022-10-09T13:59:45.808Z,23.35
2022-10-09T14:01:48.700Z,23.48
2022-10-09T14:03:51.490Z,23.80
2022-10-09T14:05:59.658Z,23.68
2022-10-09T14:08:02.383Z,23.94
2022-10-09T14:10:06.129Z,23.94
2022-10-09T14:12:08.859Z,22.60
2022-10-09T14:14:13.021Z,23.67
2022-10-09T14:16:15.796Z,23.79
2022-10-09T14:18:18.980Z,24.10
2022-10-09T14:20:25.015Z,24.02
2022-10-09T14:22:27.668Z,24.03
2022-10-09T14:24:30.391Z,24.01
2022-10-09T14:26:34.039Z,24.11
2022-10-09T14:28:37.018Z,24.25
2022-10-09T14:30:43.209Z,24.41
2022-10-09T14:32:46.120Z,24.62
2022-10-09T14:34:48.962Z,24.41
2022-10-09T14:36:51.677Z,24.24
2022-10-09T14:38:54.724Z,23.89
2022-10-09T14:40:57.530Z,23.82
2022-10-09T14:43:00.220Z,24.30
2022-10-09T14:45:03.110Z,24.07
2022-10-09T14:47:07.246Z,23.98
2022-10-09T14:49:11.701Z,23.92
2022-10-09T14:51:16.113Z,23.86
2022-10-09T14:53:18.845Z,23.67
2022-10-09T14:55:21.534Z,23.84
2022-10-09T14:57:24.227Z,23.83
2022-10-09T14:59:27.183Z,23.89
2022-10-09T15:01:30.437Z,23.77
2022-10-09T15:03:36.414Z,23.74
2022-10-09T15:05:39.176Z,23.90
2022-10-09T15:07:42.040Z,23.72
2022-10-09T15:09:44.769Z,22.83
2022-10-09T15:11:47.541Z,23.81
2022-10-09T15:13:50.281Z,23.70
2022-10-09T15:15:52.997Z,23.99
2022-10-09T15:17:55.803Z,23.96
2022-10-09T15:19:59.832Z,24.43
2022-10-09T15:22:02.562Z,24.30
2022-10-09T15:24:05.937Z,24.03
2022-10-09T15:26:09.440Z,23.91
2022-10-09T15:28:13.551Z,23.69
2022-10-09T15:30:16.632Z,23.68
2022-10-09T15:32:19.897Z,23.15
2022-10-09T15:34:23.009Z,22.45
2022-10-09T15:36:27.431Z,23.51
2022-10-09T15:38:30.161Z,23.62
2022-10-09T15:40:32.906Z,23.81
2022-10-09T15:42:36.909Z,23.33
2022-10-09T15:44:39.678Z,23.40
2022-10-09T15:46:42.444Z,22.67
2022-10-09T15:48:45.846Z,23.12
2022-10-09T15:50:51.451Z,23.01
2022-10-09T15:52:56.902Z,22.77
2022-10-09T15:54:59.779Z,22.58
2022-10-09T15:57:02.574Z,21.43
2022-10-09T15:59:05.361Z,21.57
2022-10-09T16:01:10.716Z,21.13
2022-10-09T16:03:13.499Z,20.80
2022-10-09T16:05:16.373Z,20.30
2022-10-09T16:07:19.273Z,20.05
2022-10-09T16:09:23.309Z,19.80
2022-10-09T16:11:26.998Z,19.50
2022-10-09T16:13:29.761Z,19.21
2022-10-09T16:15:32.365Z,18.89
2022-10-09T16:17:35.001Z,18.67
2022-10-09T16:19:37.680Z,18.45
2022-10-09T16:21:40.422Z,17.96
2022-10-09T16:23:43.563Z,17.93
2022-10-09T16:25:58.722Z,17.83
2022-10-09T16:28:01.546Z,16.91
2022-10-09T16:30:04.967Z,17.51
2022-10-09T16:32:08.224Z,17.45
2022-10-09T16:34:11.035Z,17.01
2022-10-09T16:36:14.297Z,16.65
2022-10-09T16:38:17.254Z,17.18
2022-10-09T16:40:25.429Z,15.62
2022-10-09T16:42:36.666Z,17.01
2022-10-09T16:44:39.672Z,16.85
2022-10-09T16:46:42.323Z,16.79
2022-10-09T16:48:45.010Z,16.73
2022-10-09T16:50:47.643Z,16.24
2022-10-09T16:52:50.398Z,16.59
2022-10-09T16:54:57.050Z,16.59
2022-10-09T16:57:04.541Z,16.60
2022-10-09T16:59:11.165Z,16.50
2022-10-09T17:01:14.250Z,16.43
2022-10-09T17:03:16.889Z,16.45
2022-10-09T17:05:20.229Z,16.31
2022-10-09T17:07:24.471Z,16.34
2022-10-09T17:09:29.446Z,16.25
2022-10-09T17:11:32.364Z,16.21
2022-10-09T17:13:35.124Z,16.22
2022-10-09T17:15:42.495Z,16.18
2022-10-09T17:17:45.162Z,16.14
2022-10-09T17:19:47.844Z,16.07
2022-10-09T17:21:50.542Z,16.05
2022-10-09T17:23:54.437Z,15.91
2022-10-09T17:25:57.792Z,15.89
2022-10-09T17:28:04.343Z,15.88
2022-10-09T17:30:11.169Z,15.82
2022-10-09T17:32:15.362Z,15.78
2022-10-09T17:34:18.539Z,15.14
2022-10-09T17:36:24.212Z,15.11
2022-10-09T17:38:27.098Z,15.75
2022-10-09T17:40:29.824Z,15.54
2022-10-09T17:42:32.468Z,15.76
2022-10-09T17:44:35.133Z,15.74
2022-10-09T17:46:37.802Z,15.68
2022-10-09T17:48:44.831Z,15.63
2022-10-09T17:50:52.499Z,15.33
2022-10-09T17:52:56.152Z,15.57
2022-10-09T17:54:58.875Z,15.55
2022-10-09T17:57:01.786Z,15.47
2022-10-09T17:59:05.197Z,15.48
2022-10-09T18:01:09.172Z,15.07
2022-10-09T18:03:12.006Z,15.49
2022-10-09T18:05:16.387Z,15.45
2022-10-09T18:07:20.107Z,15.44
2022-10-09T18:09:22.885Z,15.41
2022-10-09T18:11:27.256Z,15.36
2022-10-09T18:13:30.128Z,15.34
2022-10-09T18:15:32.986Z,14.87
2022-10-09T18:17:35.671Z,15.34
2022-10-09T18:19:38.376Z,15.35
2022-10-09T18:21:45.232Z,15.31
2022-10-09T18:23:48.737Z,15.29
2022-10-09T18:25:51.429Z,15.29
2022-10-09T18:27:54.104Z,15.19
2022-10-09T18:29:56.799Z,14.60
2022-10-09T18:31:59.462Z,15.18
2022-10-09T18:34:02.636Z,15.14
2022-10-09T18:36:07.875Z,15.08
2022-10-09T18:38:12.135Z,15.08
2022-10-09T18:40:14.958Z,15.10
2022-10-09T18:42:17.666Z,15.15
2022-10-09T18:44:24.049Z,15.18
2022-10-09T18:46:28.629Z,13.95
2022-10-09T18:48:33.429Z,15.17
2022-10-09T18:50:37.744Z,15.10
2022-10-09T18:52:42.446Z,14.66
2022-10-09T18:54:50.715Z,14.70
2022-10-09T18:56:53.817Z,13.05
2022-10-09T18:58:56.612Z,15.14
2022-10-09T19:01:00.435Z,15.12
2022-10-09T19:03:05.333Z,15.11
2022-10-09T19:05:08.821Z,15.08
2022-10-09T19:07:11.550Z,15.08
2022-10-09T19:09:15.619Z,14.72
2022-10-09T19:11:19.802Z,15.08
2022-10-09T19:13:22.732Z,14.62
2022-10-09T19:15:25.478Z,15.05
2022-10-09T19:17:28.189Z,14.83
2022-10-09T19:19:30.899Z,15.09
2022-10-09T19:21:33.648Z,14.71
2022-10-09T19:23:36.312Z,13.55
2022-10-09T19:25:39.086Z,15.03
2022-10-09T19:27:43.100Z,15.03
2022-10-09T19:29:45.873Z,15.02
2022-10-09T19:31:48.629Z,14.76
2022-10-09T19:33:51.482Z,15.02
2022-10-09T19:35:56.180Z,15.03
2022-10-09T19:37:58.901Z,15.08
2022-10-09T19:40:01.631Z,15.09
2022-10-09T19:42:04.455Z,14.87
2022-10-09T19:44:09.012Z,15.11
2022-10-09T19:46:14.807Z,14.56
2022-10-09T19:48:20.286Z,15.07
2022-10-09T19:50:23.006Z,15.07
2022-10-09T19:52:25.823Z,14.68
2022-10-09T19:54:28.611Z,13.18
2022-10-09T19:56:33.756Z,13.61
2022-10-09T19:58:36.486Z,15.04
2022-10-09T20:00:44.174Z,14.23
2022-10-09T20:02:46.972Z,14.99
2022-10-09T20:04:50.098Z,14.98
2022-10-09T20:06:52.947Z,14.62
2022-10-09T20:08:56.126Z,14.96
2022-10-09T20:10:59.508Z,14.93
2022-10-09T20:13:02.297Z,14.93
2022-10-09T20:15:05.624Z,13.76
2022-10-09T20:17:09.732Z,14.93
2022-10-09T20:19:12.802Z,14.93
2022-10-09T20:21:17.982Z,12.41
2022-10-09T20:23:20.884Z,14.93
2022-10-09T20:25:24.399Z,14.93
2022-10-09T20:27:27.107Z,14.87
2022-10-09T20:29:29.922Z,12.82
2022-10-09T20:31:32.673Z,14.86
2022-10-09T20:33:38.138Z,13.21
2022-10-09T20:35:44.115Z,14.86
2022-10-09T20:37:48.000Z,14.82
2022-10-09T20:39:51.733Z,14.86
2022-10-09T20:41:54.451Z,14.87
2022-10-09T20:43:58.899Z,14.88
2022-10-09T20:46:05.664Z,12.98
2022-10-09T20:48:08.654Z,14.87
2022-10-09T20:50:12.791Z,14.86
2022-10-09T20:52:15.703Z,14.84
2022-10-09T20:54:21.158Z,14.80
2022-10-09T20:56:25.895Z,14.57
2022-10-09T20:58:28.874Z,14.78
2022-10-09T21:00:31.722Z,14.78
2022-10-09T21:02:34.616Z,14.81
2022-10-09T21:04:37.388Z,14.83
2022-10-09T21:06:41.814Z,14.85
2022-10-09T21:08:44.594Z,14.78
2022-10-09T21:10:49.421Z,14.82
2022-10-09T21:12:52.574Z,14.34
2022-10-09T21:14:55.530Z,14.78
2022-10-09T21:16:58.201Z,14.78
2022-10-09T21:19:03.866Z,13.77
2022-10-09T21:21:08.598Z,14.81
2022-10-09T21:23:14.769Z,13.05
2022-10-09T21:25:17.491Z,14.74
2022-10-09T21:27:20.241Z,14.73
2022-10-09T21:29:23.143Z,14.73
2022-10-09T21:31:28.405Z,14.38
2022-10-09T21:33:31.221Z,14.72
2022-10-09T21:35:39.555Z,14.70
2022-10-09T21:37:42.458Z,14.67
2022-10-09T21:39:46.528Z,14.70
2022-10-09T21:41:49.248Z,14.46
2022-10-09T21:43:51.987Z,14.68
2022-10-09T21:45:54.710Z,14.72
2022-10-09T21:47:57.580Z,14.69
2022-10-09T21:50:00.286Z,14.18
2022-10-09T21:52:03.007Z,14.65
2022-10-09T21:54:06.004Z,14.64
2022-10-09T21:56:10.771Z,14.68
2022-10-09T21:58:13.512Z,14.63
2022-10-09T22:00:16.258Z,14.59
2022-10-09T22:02:18.964Z,12.84
2022-10-09T22:04:21.687Z,12.87
2022-10-09T22:06:24.440Z,14.17
2022-10-09T22:08:27.458Z,14.26
2022-10-09T22:10:30.245Z,14.33
2022-10-09T22:12:34.576Z,14.39
2022-10-09T22:14:37.321Z,14.40
2022-10-09T22:16:40.200Z,13.75
2022-10-09T22:18:43.273Z,14.36
2022-10-09T22:20:47.798Z,14.39
2022-10-09T22:22:50.714Z,13.96
2022-10-09T22:24:53.709Z,14.37
2022-10-09T22:26:57.026Z,13.95
2022-10-09T22:29:01.079Z,13.63
2022-10-09T22:31:15.325Z,14.42
2022-10-09T22:33:18.015Z,14.39
2022-10-09T22:35:21.883Z,14.31
2022-10-09T22:37:24.615Z,14.33
2022-10-09T22:39:27.356Z,14.31
2022-10-09T22:41:31.223Z,14.03
2022-10-09T22:43:33.971Z,13.75
2022-10-09T22:45:39.264Z,14.03
2022-10-09T22:47:42.025Z,13.18
2022-10-09T22:49:44.943Z,13.34
2022-10-09T22:51:47.691Z,10.68
2022-10-09T22:53:50.876Z,14.03
2022-10-09T22:55:54.160Z,13.66
2022-10-09T22:57:56.907Z,13.28
2022-10-09T22:59:59.637Z,13.94
2022-10-09T23:02:03.810Z,12.97
2022-10-09T23:04:08.128Z,13.88
2022-10-09T23:06:12.552Z,13.83
2022-10-09T23:08:15.245Z,13.71
2022-10-09T23:10:17.967Z,13.52
2022-10-09T23:12:20.733Z,12.37
2022-10-09T23:14:23.648Z,13.57
2022-10-09T23:16:27.936Z,13.59
2022-10-09T23:18:32.639Z,13.60
2022-10-09T23:20:37.304Z,13.58
2022-10-09T23:22:39.998Z,13.40
2022-10-09T23:24:42.686Z,13.58
2022-10-09T23:26:46.695Z,13.49
2022-10-09T23:28:51.034Z,13.49
2022-10-09T23:30:54.766Z,11.96
2022-10-09T23:32:57.491Z,13.47
2022-10-09T23:35:01.609Z,13.45
2022-10-09T23:37:04.405Z,13.45
2022-10-09T23:39:08.023Z,13.42
2022-10-09T23:41:15.204Z,13.40
2022-10-09T23:43:17.874Z,13.40
2022-10-09T23:45:20.565Z,13.41
2022-10-09T23:47:23.242Z,13.41
2022-10-09T23:49:25.899Z,13.41
2022-10-09T23:51:30.222Z,13.44
2022-10-09T23:53:33.405Z,13.46
2022-10-09T23:55:36.069Z,12.51
2022-10-09T23:57:38.719Z,13.49
2022-10-09T23:59:41.675Z,13.17
